Time;durP1;ratioP1;P1;durP2;ratioP2;P2;SDS_P1;SDS_P2;PMS_P1;PMS_P2;Temp;Humidity;BMP_temperature;BMP_pressure;BME280_temperature;BME280_humidity;BME280_pressure;Samples;Min_cycle;Max_cycle;Signal;HPM_P1;HPM_P2
2022/12/27 00:00:50;;;;;;;;;;;4.90;79.20;;;;;;5044343;28;87993;-40
2022/12/27 00:03:15;;;;;;;;;;;4.90;79.10;;;;;;5044467;28;88318;-40
2022/12/27 00:05:42;;;;;;;;;;;4.90;79.20;;;;;;5044860;28;87145;-40
2022/12/27 00:08:08;;;;;;;;;;;4.90;79.10;;;;;;5044914;28;87547;-40
2022/12/27 00:10:33;;;;;;;;;;;4.90;79.10;;;;;;5047228;28;87262;-40
2022/12/27 00:12:59;;;;;;;;;;;4.90;79.10;;;;;;5044987;28;86975;-40
2022/12/27 00:15:24;;;;;;;;;;;4.90;79.10;;;;;;5044319;28;88066;-40
2022/12/27 00:17:50;;;;;;;;;;;4.90;79.10;;;;;;5045336;28;86485;-40
2022/12/27 00:20:15;;;;;;;;;;;4.90;79.00;;;;;;5045072;28;87439;-40
2022/12/27 00:22:41;;;;;;;;;;;4.80;79.20;;;;;;5044123;28;88324;-40
2022/12/27 00:25:06;;;;;;;;;;;4.80;79.10;;;;;;5043651;27;88096;-40
2022/12/27 00:27:32;;;;;;;;;;;4.80;79.20;;;;;;5043301;27;87358;-40
2022/12/27 00:29:57;;;;;;;;;;;4.80;79.20;;;;;;5044342;27;88138;-40
2022/12/27 00:32:23;;;;;;;;;;;4.80;79.20;;;;;;5047044;28;87153;-40
2022/12/27 00:34:48;;;;;;;;;;;4.80;79.20;;;;;;5044039;28;87354;-40
2022/12/27 00:37:14;;;;;;;;;;;4.80;79.10;;;;;;5044426;28;87166;-40
2022/12/27 00:39:39;;;;;;;;;;;4.80;79.10;;;;;;5044165;27;87028;-40
2022/12/27 00:42:05;;;;;;;;;;;4.80;79.10;;;;;;5044417;28;86483;-40
2022/12/27 00:44:30;;;;;;;;;;;4.80;79.10;;;;;;5044228;28;87204;-40
2022/12/27 00:46:56;;;;;;;;;;;4.80;79.10;;;;;;5044220;27;87393;-40
2022/12/27 00:49:21;;;;;;;;;;;4.80;79.10;;;;;;5043256;28;89186;-40
2022/12/27 00:51:47;;;;;;;;;;;4.80;79.20;;;;;;5044255;28;87108;-40
2022/12/27 00:54:12;;;;;;;;;;;4.80;79.10;;;;;;5046816;28;87448;-40
2022/12/27 00:56:38;;;;;;;;;;;4.80;79.10;;;;;;5044066;28;87134;-40
2022/12/27 00:59:03;;;;;;;;;;;4.80;79.10;;;;;;5044189;28;87521;-40
2022/12/27 01:01:30;;;;;;;;;;;4.80;79.10;;;;;;5043703;28;88045;-41
2022/12/27 01:03:56;;;;;;;;;;;4.80;79.20;;;;;;5043731;28;87033;-40
2022/12/27 01:06:23;;;;;;;;;;;4.70;79.10;;;;;;5044351;28;87499;-40
2022/12/27 01:08:48;;;;;;;;;;;4.80;79.10;;;;;;5043559;28;88035;-40
2022/12/27 01:11:15;;;;;;;;;;;4.80;79.10;;;;;;5043597;28;87055;-40
2022/12/27 01:13:41;;;;;;;;;;;4.70;79.10;;;;;;5043325;28;87938;-40
2022/12/27 01:16:08;;;;;;;;;;;4.70;79.10;;;;;;5046428;28;87424;-40
2022/12/27 01:18:33;;;;;;;;;;;4.70;79.10;;;;;;5043766;28;87550;-40
2022/12/27 01:21:02;;;;;;;;;;;4.70;79.00;;;;;;5043420;28;88284;-40
2022/12/27 01:23:30;;;;;;;;;;;4.70;79.40;;;;;;5043455;28;87123;-40
2022/12/27 01:25:59;;;;;;;;;;;4.70;79.10;;;;;;5043613;28;87419;-41
2022/12/27 01:28:25;;;;;;;;;;;4.70;79.20;;;;;;5043142;28;88034;-40
2022/12/27 01:30:50;;;;;;;;;;;4.70;79.10;;;;;;5044041;28;86262;-40
2022/12/27 01:33:15;;;;;;;;;;;4.70;79.10;;;;;;5043585;28;86952;-40
2022/12/27 01:35:41;;;;;;;;;;;4.70;79.10;;;;;;5043177;28;88129;-40
2022/12/27 01:38:06;;;;;;;;;;;4.70;79.10;;;;;;5045423;27;88578;-40
2022/12/27 01:40:34;;;;;;;;;;;4.70;79.10;;;;;;5043160;28;88084;-40
2022/12/27 01:42:59;;;;;;;;;;;4.70;79.10;;;;;;5043156;28;87175;-40
2022/12/27 01:45:26;;;;;;;;;;;4.60;79.10;;;;;;5043408;27;87269;-40
2022/12/27 01:47:51;;;;;;;;;;;4.60;79.20;;;;;;5042839;28;88322;-40
2022/12/27 01:50:21;;;;;;;;;;;4.60;79.30;;;;;;5043285;28;87167;-40
2022/12/27 01:53:06;;;;;;;;;;;4.60;79.20;;;;;;5042981;28;87268;-40
2022/12/27 01:55:31;;;;;;;;;;;4.60;79.10;;;;;;5043046;28;88587;-40
2022/12/27 01:58:01;;;;;;;;;;;4.60;79.00;;;;;;5046058;28;87168;-40
2022/12/27 02:00:27;;;;;;;;;;;4.60;79.00;;;;;;5042422;28;88150;-40
2022/12/27 02:02:52;;;;;;;;;;;4.60;79.10;;;;;;5042558;28;88092;-40
2022/12/27 02:05:19;;;;;;;;;;;4.60;79.10;;;;;;5042902;28;88460;-40
2022/12/27 02:08:08;;;;;;;;;;;4.60;79.00;;;;;;5042552;28;88353;-40
2022/12/27 02:10:34;;;;;;;;;;;4.60;78.90;;;;;;4995146;28;87007;-40
2022/12/27 02:13:00;;;;;;;;;;;4.60;79.00;;;;;;5042728;28;87421;-41
2022/12/27 02:15:25;;;;;;;;;;;4.50;79.10;;;;;;5042432;28;88248;-40
2022/12/27 02:17:51;;;;;;;;;;;4.50;79.10;;;;;;5042891;28;87198;-40
2022/12/27 02:20:18;;;;;;;;;;;4.50;79.20;;;;;;5045854;28;87530;-40
2022/12/27 02:25:46;;;;;;;;;;;4.50;79.30;;;;;;5042863;28;86967;-40
2022/12/27 02:28:11;;;;;;;;;;;4.40;79.50;;;;;;5041922;28;89223;-40
2022/12/27 02:30:37;;;;;;;;;;;4.40;79.50;;;;;;5042457;27;86991;-40
2022/12/27 02:33:06;;;;;;;;;;;4.50;79.40;;;;;;5042503;28;87674;-40
2022/12/27 02:35:34;;;;;;;;;;;4.50;79.50;;;;;;5042238;28;87336;-40
2022/12/27 02:38:03;;;;;;;;;;;4.40;79.40;;;;;;5042211;28;87158;-40
2022/12/27 02:55:02;;;;;;;;;;;4.40;79.50;;;;;;5045400;28;89136;-40
2022/12/27 02:57:48;;;;;;;;;;;4.40;79.50;;;;;;5045654;28;87144;-40
2022/12/27 03:05:44;;;;;;;;;;;4.30;79.40;;;;;;5045658;28;87505;-40
2022/12/27 03:08:13;;;;;;;;;;;4.30;79.50;;;;;;5048684;28;86966;-40
2022/12/27 03:16:31;;;;;;;;;;;4.30;79.40;;;;;;5045638;27;87004;-40
2022/12/27 03:18:59;;;;;;;;;;;4.30;79.20;;;;;;5045429;28;88097;-40
2022/12/27 03:25:26;;;;;;;;;;;4.30;79.20;;;;;;5045949;28;87012;-40
2022/12/27 03:27:08;;;;;;;;;;;4.30;79.10;;;;;;5043966;28;88871;-40
2022/12/27 03:35:09;;;;;;;;;;;4.30;79.10;;;;;;5044922;28;86977;-40
2022/12/27 03:40:28;;;;;;;;;;;4.30;79.10;;;;;;5043577;28;86144;-40
2022/12/27 03:43:11;;;;;;;;;;;4.20;79.20;;;;;;5044768;28;87148;-40
2022/12/27 03:48:23;;;;;;;;;;;4.30;79.20;;;;;;5044324;28;88104;-40
2022/12/27 03:50:56;;;;;;;;;;;4.30;79.10;;;;;;5044947;28;87132;-40
2022/12/27 03:53:30;;;;;;;;;;;4.20;79.30;;;;;;5045178;28;87511;-40
2022/12/27 03:55:56;;;;;;;;;;;4.20;79.30;;;;;;5047686;28;89240;-40
2022/12/27 03:58:21;;;;;;;;;;;4.30;79.20;;;;;;5044729;28;87422;-40
2022/12/27 04:00:47;;;;;;;;;;;4.20;79.10;;;;;;5044548;27;87251;-40
2022/12/27 04:05:56;;;;;;;;;;;4.20;79.10;;;;;;5045420;28;86509;-40
2022/12/27 04:35:43;;;;;;;;;;;4.10;78.90;;;;;;5044632;28;87094;-40
2022/12/27 04:38:08;;;;;;;;;;;4.10;79.00;;;;;;5043887;28;88520;-40
2022/12/27 04:57:03;;;;;;;;;;;4.00;78.90;;;;;;5044262;28;87064;-40
2022/12/27 05:02:18;;;;;;;;;;;4.00;78.90;;;;;;5005116;28;87082;-40
2022/12/27 05:04:44;;;;;;;;;;;4.00;78.90;;;;;;5046695;28;87324;-40
2022/12/27 05:15:24;;;;;;;;;;;4.00;78.80;;;;;;5043938;28;86999;-40
2022/12/27 05:17:49;;;;;;;;;;;4.00;78.80;;;;;;5043833;28;87764;-40
2022/12/27 05:20:15;;;;;;;;;;;4.00;78.80;;;;;;5043238;28;87286;-40
2022/12/27 05:25:33;;;;;;;;;;;4.00;78.70;;;;;;5044502;28;86645;-40
2022/12/27 05:27:59;;;;;;;;;;;4.00;78.80;;;;;;5046213;28;88154;-40
2022/12/27 05:30:25;;;;;;;;;;;3.90;78.80;;;;;;5043580;28;87636;-40
2022/12/27 05:32:54;;;;;;;;;;;3.90;78.80;;;;;;5041871;28;89609;-40
2022/12/27 05:35:19;;;;;;;;;;;3.90;78.80;;;;;;5043315;28;87120;-40
2022/12/27 05:37:45;;;;;;;;;;;4.00;78.80;;;;;;5043502;28;87398;-40
2022/12/27 05:40:11;;;;;;;;;;;4.00;78.70;;;;;;5042941;28;88267;-40
2022/12/27 05:42:36;;;;;;;;;;;3.90;78.70;;;;;;5043452;28;87143;-40
2022/12/27 05:45:02;;;;;;;;;;;3.90;78.70;;;;;;5043120;28;87624;-41
2022/12/27 05:47:28;;;;;;;;;;;3.90;79.30;;;;;;5042994;28;88268;-40
2022/12/27 05:49:54;;;;;;;;;;;3.90;78.80;;;;;;5046885;28;86344;-40
2022/12/27 05:52:19;;;;;;;;;;;3.90;78.60;;;;;;5042546;28;88398;-40
2022/12/27 05:54:45;;;;;;;;;;;3.90;78.70;;;;;;5043208;28;87171;-40
2022/12/27 05:57:10;;;;;;;;;;;3.90;78.60;;;;;;5042613;28;87787;-40
2022/12/27 05:59:35;;;;;;;;;;;3.90;78.70;;;;;;5042669;28;87390;-40
2022/12/27 06:02:01;;;;;;;;;;;3.90;78.60;;;;;;5043092;28;87207;-40
2022/12/27 06:04:26;;;;;;;;;;;3.90;78.70;;;;;;5043420;28;87497;-40
2022/12/27 06:06:52;;;;;;;;;;;3.80;78.70;;;;;;5042728;28;88267;-40
2022/12/27 06:09:17;;;;;;;;;;;3.90;78.80;;;;;;5043201;28;87400;-40
2022/12/27 06:11:43;;;;;;;;;;;3.80;79.30;;;;;;5045491;28;87471;-40
2022/12/27 06:14:08;;;;;;;;;;;3.80;78.70;;;;;;5043224;28;86406;-40
2022/12/27 06:16:34;;;;;;;;;;;3.80;78.80;;;;;;5042949;28;87130;-40
2022/12/27 06:18:59;;;;;;;;;;;3.80;78.80;;;;;;5042689;28;88051;-40
2022/12/27 06:21:25;;;;;;;;;;;3.90;78.70;;;;;;5042275;28;87900;-40
2022/12/27 06:23:50;;;;;;;;;;;3.80;78.60;;;;;;5042888;28;88640;-40
2022/12/27 06:26:18;;;;;;;;;;;3.90;78.60;;;;;;5042503;28;88204;-40
2022/12/27 06:28:43;;;;;;;;;;;3.80;78.50;;;;;;5042576;28;86995;-40
2022/12/27 06:31:09;;;;;;;;;;;3.80;78.60;;;;;;5044978;28;88896;-40
2022/12/27 06:33:35;;;;;;;;;;;3.80;78.70;;;;;;5042569;28;87120;-40
2022/12/27 06:36:07;;;;;;;;;;;3.80;78.60;;;;;;5042837;28;87389;-40
2022/12/27 06:38:33;;;;;;;;;;;3.80;78.70;;;;;;5042778;28;87146;-40
2022/12/27 06:41:06;;;;;;;;;;;3.80;78.60;;;;;;5042302;27;86887;-40
2022/12/27 06:43:31;;;;;;;;;;;3.70;78.60;;;;;;5042655;28;86967;-40
2022/12/27 06:45:57;;;;;;;;;;;3.80;78.60;;;;;;5041595;28;89057;-40
2022/12/27 06:48:23;;;;;;;;;;;3.80;78.50;;;;;;5042475;28;87008;-40
2022/12/27 06:50:49;;;;;;;;;;;3.80;78.50;;;;;;5042604;28;87288;-40
2022/12/27 06:53:14;;;;;;;;;;;3.80;78.40;;;;;;5044901;28;88109;-40
2022/12/27 06:55:40;;;;;;;;;;;3.80;78.50;;;;;;5042421;28;87184;-40
2022/12/27 06:58:05;;;;;;;;;;;3.80;78.50;;;;;;5041969;28;87563;-40
2022/12/27 07:00:31;;;;;;;;;;;3.80;78.50;;;;;;5042564;28;87065;-40
2022/12/27 07:02:56;;;;;;;;;;;3.80;78.50;;;;;;5042900;28;87426;-40
2022/12/27 07:05:22;;;;;;;;;;;3.70;78.60;;;;;;5042106;28;87999;-40
2022/12/27 07:07:47;;;;;;;;;;;3.70;78.50;;;;;;5042443;28;86905;-40
2022/12/27 07:10:13;;;;;;;;;;;3.70;78.60;;;;;;5041632;28;88030;-40
2022/12/27 07:12:38;;;;;;;;;;;3.70;78.50;;;;;;5041798;28;88116;-40
2022/12/27 07:15:05;;;;;;;;;;;3.70;78.60;;;;;;5044990;28;87210;-40
2022/12/27 07:17:30;;;;;;;;;;;3.70;79.10;;;;;;5041461;28;90171;-40
2022/12/27 07:19:56;;;;;;;;;;;3.70;78.70;;;;;;5042136;28;87154;-40
2022/12/27 07:22:21;;;;;;;;;;;3.70;78.50;;;;;;5041916;28;87107;-40
2022/12/27 07:24:47;;;;;;;;;;;3.80;78.40;;;;;;5041780;28;88026;-40
2022/12/27 07:27:14;;;;;;;;;;;3.70;78.30;;;;;;5042486;28;86410;-40
2022/12/27 07:29:39;;;;;;;;;;;3.70;78.30;;;;;;5041896;28;87088;-40
2022/12/27 07:32:05;;;;;;;;;;;3.70;78.30;;;;;;5041300;28;88074;-40
2022/12/27 07:34:30;;;;;;;;;;;3.70;78.50;;;;;;5041335;28;88322;-40
2022/12/27 07:36:56;;;;;;;;;;;3.70;78.30;;;;;;5047065;27;88466;-40
2022/12/27 07:39:21;;;;;;;;;;;3.70;78.50;;;;;;5045354;28;87144;-40
2022/12/27 07:41:47;;;;;;;;;;;3.70;78.50;;;;;;5044837;28;87294;-40
2022/12/27 07:44:12;;;;;;;;;;;3.70;78.40;;;;;;5044673;28;88314;-40
2022/12/27 07:46:38;;;;;;;;;;;3.70;79.00;;;;;;5045202;28;87239;-40
2022/12/27 07:49:04;;;;;;;;;;;3.70;78.60;;;;;;5045219;27;88681;-40
2022/12/27 07:51:29;;;;;;;;;;;3.70;79.00;;;;;;5045399;28;88689;-40
2022/12/27 07:53:55;;;;;;;;;;;3.70;78.50;;;;;;5045280;28;87179;-40
2022/12/27 07:56:21;;;;;;;;;;;3.70;78.30;;;;;;5044661;28;88613;-40
2022/12/27 07:58:48;;;;;;;;;;;3.70;78.40;;;;;;5046921;28;89138;-40
2022/12/27 08:01:14;;;;;;;;;;;3.70;78.50;;;;;;5044910;28;88396;-40
2022/12/27 08:03:40;;;;;;;;;;;3.70;78.50;;;;;;5044624;28;87982;-40
2022/12/27 08:06:06;;;;;;;;;;;3.70;78.50;;;;;;5045160;28;87419;-40
2022/12/27 08:08:35;;;;;;;;;;;3.70;78.50;;;;;;5045053;28;87411;-40
2022/12/27 08:11:01;;;;;;;;;;;3.70;78.60;;;;;;5044281;28;89109;-40
2022/12/27 08:13:26;;;;;;;;;;;3.70;78.50;;;;;;5044657;27;87153;-40
2022/12/27 08:15:52;;;;;;;;;;;3.70;78.60;;;;;;5044974;28;88705;-40
2022/12/27 08:18:17;;;;;;;;;;;3.70;78.50;;;;;;5044099;28;89209;-40
2022/12/27 08:20:43;;;;;;;;;;;3.70;78.50;;;;;;5047648;28;87576;-40
2022/12/27 08:23:09;;;;;;;;;;;3.70;78.50;;;;;;5043694;28;89190;-40
2022/12/27 08:25:34;;;;;;;;;;;3.70;78.70;;;;;;5044783;28;87534;-40
2022/12/27 08:28:07;;;;;;;;;;;3.70;78.50;;;;;;5044417;28;87279;-40
2022/12/27 08:30:32;;;;;;;;;;;3.70;78.70;;;;;;5044067;28;87989;-40
2022/12/27 08:32:59;;;;;;;;;;;3.70;78.80;;;;;;5044415;28;87104;-40
2022/12/27 08:35:25;;;;;;;;;;;3.60;78.80;;;;;;5044459;28;87485;-40
2022/12/27 08:37:50;;;;;;;;;;;3.70;79.40;;;;;;5044112;28;88153;-40
2022/12/27 08:40:16;;;;;;;;;;;3.60;78.90;;;;;;5047844;28;86386;-40
2022/12/27 08:42:41;;;;;;;;;;;3.70;78.80;;;;;;5043574;28;88291;-40
2022/12/27 08:45:07;;;;;;;;;;;3.70;78.80;;;;;;5044467;28;87152;-40
2022/12/27 08:47:33;;;;;;;;;;;3.70;78.80;;;;;;5042360;27;88104;-40
2022/12/27 08:49:58;;;;;;;;;;;3.70;78.80;;;;;;5043874;28;88524;-40
2022/12/27 08:52:24;;;;;;;;;;;3.70;78.90;;;;;;5044275;28;87127;-40
2022/12/27 08:54:50;;;;;;;;;;;3.70;78.90;;;;;;5043764;28;88674;-40
2022/12/27 08:57:15;;;;;;;;;;;3.70;78.90;;;;;;5043699;28;88074;-40
2022/12/27 08:59:41;;;;;;;;;;;3.70;78.90;;;;;;5044130;28;87137;-40
2022/12/27 09:02:07;;;;;;;;;;;3.70;79.00;;;;;;5046813;28;87404;-40
2022/12/27 09:04:33;;;;;;;;;;;3.70;79.00;;;;;;5044471;28;86380;-40
2022/12/27 09:06:58;;;;;;;;;;;3.70;79.00;;;;;;5043841;28;86991;-40
2022/12/27 09:09:24;;;;;;;;;;;3.60;79.10;;;;;;5043673;28;88298;-40
2022/12/27 09:11:49;;;;;;;;;;;3.70;79.00;;;;;;5043193;28;88079;-40
2022/12/27 09:14:15;;;;;;;;;;;3.70;79.00;;;;;;5043771;28;88448;-40
2022/12/27 09:16:40;;;;;;;;;;;3.60;79.10;;;;;;5043440;28;87994;-40
2022/12/27 09:19:06;;;;;;;;;;;3.70;79.00;;;;;;5043902;28;87573;-40
2022/12/27 09:21:32;;;;;;;;;;;3.60;79.10;;;;;;5043813;28;87219;-40
2022/12/27 09:23:58;;;;;;;;;;;3.60;79.10;;;;;;5046109;28;88095;-40
2022/12/27 09:26:25;;;;;;;;;;;3.60;79.20;;;;;;5043629;28;87252;-40
2022/12/27 09:28:51;;;;;;;;;;;3.60;79.40;;;;;;5025368;28;91642;-40
2022/12/27 09:31:17;;;;;;;;;;;3.60;79.30;;;;;;5043639;28;87096;-40
2022/12/27 09:33:43;;;;;;;;;;;3.60;79.30;;;;;;5043307;28;87503;-40
2022/12/27 09:36:09;;;;;;;;;;;3.70;79.20;;;;;;5042392;28;89191;-40
2022/12/27 09:38:35;;;;;;;;;;;3.70;79.20;;;;;;5043490;28;87108;-40
2022/12/27 09:41:03;;;;;;;;;;;3.70;79.30;;;;;;5042999;28;87377;-40
2022/12/27 09:43:34;;;;;;;;;;;3.70;79.40;;;;;;5043007;28;88011;-40
2022/12/27 09:46:01;;;;;;;;;;;3.60;79.20;;;;;;5046445;28;87113;-40
2022/12/27 09:48:31;;;;;;;;;;;3.70;79.30;;;;;;5042715;28;89382;-40
2022/12/27 09:51:02;;;;;;;;;;;3.60;79.30;;;;;;5043212;28;86942;-40
2022/12/27 09:53:57;;;;;;;;;;;3.60;79.30;;;;;;5043594;28;87427;-40
2022/12/27 09:56:25;;;;;;;;;;;3.70;79.40;;;;;;5020022;28;89554;-40
2022/12/27 09:58:52;;;;;;;;;;;3.70;79.30;;;;;;5024569;28;87182;-40
2022/12/27 10:01:18;;;;;;;;;;;3.70;79.30;;;;;;5042301;28;88965;-40
2022/12/27 10:03:44;;;;;;;;;;;3.70;79.30;;;;;;5024343;28;90131;-41
2022/12/27 10:06:23;;;;;;;;;;;3.70;79.20;;;;;;5042617;28;87123;-40
2022/12/27 10:08:48;;;;;;;;;;;3.70;79.30;;;;;;5045830;28;87613;-40
2022/12/27 10:11:35;;;;;;;;;;;3.70;79.40;;;;;;5043044;28;87086;-40
2022/12/27 10:14:21;;;;;;;;;;;3.70;79.30;;;;;;5042939;28;87571;-40
2022/12/27 10:16:55;;;;;;;;;;;3.70;79.60;;;;;;5024110;28;88119;-40
2022/12/27 10:19:24;;;;;;;;;;;3.70;79.60;;;;;;5043330;28;86277;-40
2022/12/27 10:22:08;;;;;;;;;;;3.70;79.60;;;;;;5042861;28;86950;-40
2022/12/27 10:24:43;;;;;;;;;;;3.70;79.60;;;;;;5042667;28;88060;-40
2022/12/27 10:27:13;;;;;;;;;;;3.70;79.50;;;;;;5041938;28;88450;-40
2022/12/27 10:29:39;;;;;;;;;;;3.70;79.80;;;;;;5045140;28;89747;-40
2022/12/27 10:32:04;;;;;;;;;;;3.70;79.80;;;;;;5042444;28;87049;-40
2022/12/27 10:34:30;;;;;;;;;;;3.70;79.70;;;;;;5042737;28;88298;-40
2022/12/27 10:36:55;;;;;;;;;;;3.70;79.60;;;;;;5042325;27;88045;-40
2022/12/27 10:39:28;;;;;;;;;;;3.80;79.50;;;;;;5042713;28;87141;-40
2022/12/27 10:41:56;;;;;;;;;;;3.80;79.90;;;;;;5041916;28;87257;-40
2022/12/27 10:44:22;;;;;;;;;;;3.70;79.80;;;;;;5042850;28;87095;-40
2022/12/27 10:46:49;;;;;;;;;;;3.80;79.90;;;;;;5042440;28;87126;-41
2022/12/27 10:49:29;;;;;;;;;;;3.80;80.00;;;;;;5042414;28;88903;-40
2022/12/27 10:51:56;;;;;;;;;;;3.80;79.90;;;;;;5044057;28;89444;-40
2022/12/27 10:54:26;;;;;;;;;;;3.80;79.90;;;;;;5042438;28;87430;-40
2022/12/27 10:56:52;;;;;;;;;;;3.80;79.90;;;;;;5042045;27;88046;-40
2022/12/27 10:59:19;;;;;;;;;;;3.90;79.60;;;;;;5042182;28;87118;-40
2022/12/27 11:01:46;;;;;;;;;;;3.90;79.70;;;;;;5042401;28;87459;-40
2022/12/27 11:04:22;;;;;;;;;;;3.90;79.50;;;;;;5042078;28;88015;-40
2022/12/27 11:07:09;;;;;;;;;;;3.90;79.50;;;;;;5042067;28;87108;-40
2022/12/27 11:09:37;;;;;;;;;;;3.90;79.70;;;;;;5042914;27;87387;-40
2022/12/27 11:12:19;;;;;;;;;;;3.90;79.70;;;;;;5044880;28;87126;-40
2022/12/27 11:14:57;;;;;;;;;;;3.90;79.70;;;;;;5048705;28;87043;-40
2022/12/27 11:17:24;;;;;;;;;;;3.90;79.70;;;;;;5044223;28;88796;-40
2022/12/27 11:19:50;;;;;;;;;;;3.90;79.90;;;;;;5045607;28;86854;-40
2022/12/27 11:22:15;;;;;;;;;;;3.90;79.90;;;;;;5045705;28;87754;-40
2022/12/27 11:24:48;;;;;;;;;;;4.00;80.20;;;;;;5045013;28;88510;-40
2022/12/27 11:27:24;;;;;;;;;;;3.90;80.10;;;;;;5045638;28;86855;-40
2022/12/27 11:29:50;;;;;;;;;;;3.90;80.20;;;;;;5045052;28;87796;-40
2022/12/27 11:32:16;;;;;;;;;;;3.90;80.30;;;;;;5045043;28;88030;-40
2022/12/27 11:34:45;;;;;;;;;;;3.90;80.40;;;;;;5045874;28;86477;-40
2022/12/27 11:37:15;;;;;;;;;;;4.00;80.40;;;;;;5047609;28;88288;-40
2022/12/27 11:39:41;;;;;;;;;;;4.00;80.60;;;;;;5045256;28;87101;-40
2022/12/27 11:42:11;;;;;;;;;;;4.00;80.80;;;;;;5043937;28;88967;-40
2022/12/27 11:44:40;;;;;;;;;;;4.00;81.00;;;;;;5044702;28;87152;-40
2022/12/27 11:47:22;;;;;;;;;;;4.00;80.80;;;;;;5044926;28;87576;-40
2022/12/27 11:49:54;;;;;;;;;;;4.00;80.90;;;;;;5045449;28;87462;-40
2022/12/27 11:52:39;;;;;;;;;;;4.00;80.90;;;;;;5044610;28;87946;-40
2022/12/27 11:55:28;;;;;;;;;;;4.10;80.90;;;;;;5045282;28;86947;-40
2022/12/27 11:57:56;;;;;;;;;;;4.10;80.90;;;;;;5031251;28;88061;-40
2022/12/27 12:00:22;;;;;;;;;;;4.10;81.20;;;;;;5048081;28;87251;-40
2022/12/27 12:02:54;;;;;;;;;;;4.10;81.40;;;;;;5045282;28;87053;-40
2022/12/27 12:05:30;;;;;;;;;;;4.10;81.50;;;;;;5044380;28;89248;-40
2022/12/27 12:08:02;;;;;;;;;;;4.10;81.50;;;;;;5044548;28;89157;-40
2022/12/27 12:10:45;;;;;;;;;;;4.10;81.90;;;;;;5045067;28;88486;-40
2022/12/27 12:13:29;;;;;;;;;;;4.10;81.90;;;;;;5044666;28;87477;-40
2022/12/27 12:16:27;;;;;;;;;;;4.10;82.10;;;;;;5044500;28;87254;-40
2022/12/27 12:19:07;;;;;;;;;;;4.10;81.90;;;;;;4988982;28;87379;-40
2022/12/27 12:21:33;;;;;;;;;;;4.10;82.00;;;;;;5043964;27;89566;-40
2022/12/27 12:24:17;;;;;;;;;;;4.20;82.00;;;;;;5047809;28;87110;-40
2022/12/27 12:26:50;;;;;;;;;;;4.20;81.80;;;;;;5044874;28;86470;-40
2022/12/27 12:29:31;;;;;;;;;;;4.20;81.90;;;;;;5044741;28;87392;-40
2022/12/27 12:32:16;;;;;;;;;;;4.20;81.90;;;;;;5044759;28;87400;-40
2022/12/27 12:34:48;;;;;;;;;;;4.20;81.80;;;;;;5042214;28;88955;-40
2022/12/27 12:37:37;;;;;;;;;;;4.20;81.90;;;;;;5044538;28;87123;-41
2022/12/27 12:40:11;;;;;;;;;;;4.20;82.00;;;;;;4996339;28;87799;-40
2022/12/27 12:42:47;;;;;;;;;;;4.30;82.00;;;;;;5043521;28;88036;-40
2022/12/27 12:45:22;;;;;;;;;;;4.30;82.10;;;;;;5047199;28;86839;-40
2022/12/27 12:48:00;;;;;;;;;;;4.30;82.10;;;;;;5043992;28;88215;-40
2022/12/27 12:50:45;;;;;;;;;;;4.30;82.10;;;;;;5044416;28;86776;-40
2022/12/27 12:53:20;;;;;;;;;;;4.30;82.10;;;;;;4992645;28;87362;-40
2022/12/27 12:55:45;;;;;;;;;;;4.30;82.10;;;;;;5043735;28;88012;-40
2022/12/27 12:58:20;;;;;;;;;;;4.30;82.10;;;;;;5044377;28;87048;-40
2022/12/27 13:01:04;;;;;;;;;;;4.40;82.10;;;;;;5043689;28;87939;-40
2022/12/27 13:03:38;;;;;;;;;;;4.40;82.10;;;;;;5043807;28;87949;-40
2022/12/27 13:06:04;;;;;;;;;;;4.40;82.10;;;;;;5043974;28;87093;-40
2022/12/27 13:08:49;;;;;;;;;;;4.40;82.10;;;;;;5046659;28;87195;-40
2022/12/27 13:11:18;;;;;;;;;;;4.40;82.10;;;;;;5042750;28;89367;-40
2022/12/27 13:13:55;;;;;;;;;;;4.40;82.10;;;;;;5044003;28;87387;-40
2022/12/27 13:16:47;;;;;;;;;;;4.40;82.10;;;;;;5043464;28;88242;-40
2022/12/27 13:19:12;;;;;;;;;;;4.50;82.20;;;;;;5044456;28;86213;-40
2022/12/27 13:21:51;;;;;;;;;;;4.50;82.70;;;;;;5043469;28;88006;-40
2022/12/27 13:24:30;;;;;;;;;;;4.50;82.00;;;;;;5043465;28;88027;-40
2022/12/27 13:27:11;;;;;;;;;;;4.50;82.10;;;;;;5042824;28;88017;-40
2022/12/27 13:29:48;;;;;;;;;;;4.60;82.20;;;;;;5043533;28;88358;-40
2022/12/27 13:32:22;;;;;;;;;;;4.60;82.10;;;;;;5046358;28;87933;-40
2022/12/27 13:34:47;;;;;;;;;;;4.60;82.30;;;;;;5042767;28;87795;-40
2022/12/27 13:37:33;;;;;;;;;;;4.60;82.30;;;;;;5042976;27;88067;-40
2022/12/27 13:39:58;;;;;;;;;;;4.60;82.50;;;;;;5025066;28;87202;-40
2022/12/27 13:42:53;;;;;;;;;;;4.60;82.40;;;;;;5042626;28;88404;-40
2022/12/27 13:45:25;;;;;;;;;;;4.70;82.60;;;;;;5020894;28;86545;-40
2022/12/27 13:48:00;;;;;;;;;;;4.70;82.90;;;;;;5043344;28;86960;-40
2022/12/27 13:50:41;;;;;;;;;;;4.70;83.00;;;;;;5043296;28;87349;-40
2022/12/27 13:53:18;;;;;;;;;;;4.70;83.20;;;;;;5042350;28;88914;-40
2022/12/27 13:55:50;;;;;;;;;;;4.70;83.20;;;;;;5046174;28;87130;-40
2022/12/27 13:58:34;;;;;;;;;;;4.70;83.30;;;;;;5042832;28;87935;-40
2022/12/27 14:01:19;;;;;;;;;;;4.70;83.30;;;;;;5043387;28;87136;-40
2022/12/27 14:04:04;;;;;;;;;;;4.70;83.30;;;;;;5043308;28;87384;-40
2022/12/27 14:06:51;;;;;;;;;;;4.70;83.40;;;;;;5042797;28;87879;-40
2022/12/27 14:09:34;;;;;;;;;;;4.80;83.60;;;;;;5043046;28;86927;-40
2022/12/27 14:12:02;;;;;;;;;;;4.80;83.50;;;;;;5043633;28;87597;-40
2022/12/27 14:14:28;;;;;;;;;;;4.80;83.60;;;;;;5042665;28;88019;-40
2022/12/27 14:17:06;;;;;;;;;;;4.80;83.60;;;;;;5043038;28;87071;-40
2022/12/27 14:19:44;;;;;;;;;;;4.80;83.70;;;;;;5045044;28;87837;-40
2022/12/27 14:22:28;;;;;;;;;;;4.80;83.80;;;;;;5043010;28;87003;-40
2022/12/27 14:25:11;;;;;;;;;;;4.90;83.80;;;;;;5043107;28;86990;-40
2022/12/27 14:27:46;;;;;;;;;;;4.90;83.70;;;;;;5042443;28;88105;-40
2022/12/27 14:30:17;;;;;;;;;;;4.90;83.90;;;;;;5042923;28;87134;-40
2022/12/27 14:32:46;;;;;;;;;;;4.90;84.00;;;;;;5042148;28;88647;-40
2022/12/27 14:35:11;;;;;;;;;;;4.90;84.10;;;;;;5042323;28;88175;-40
2022/12/27 14:38:04;;;;;;;;;;;4.90;84.00;;;;;;5043170;28;86513;-41
2022/12/27 14:40:35;;;;;;;;;;;4.90;84.30;;;;;;5042903;28;87105;-40
2022/12/27 14:43:03;;;;;;;;;;;4.90;84.40;;;;;;5044824;28;87940;-40
2022/12/27 14:45:47;;;;;;;;;;;4.90;84.30;;;;;;5042741;27;88277;-40
2022/12/27 14:48:31;;;;;;;;;;;5.00;84.50;;;;;;5046042;28;87196;-40
2022/12/27 14:51:03;;;;;;;;;;;5.00;84.40;;;;;;5045928;28;87214;-40
2022/12/27 14:54:01;;;;;;;;;;;5.00;84.50;;;;;;5046441;28;87073;-40
2022/12/27 14:56:35;;;;;;;;;;;5.00;84.40;;;;;;4989707;28;88040;-40
2022/12/27 14:59:01;;;;;;;;;;;5.00;84.50;;;;;;5045926;28;86872;-40
2022/12/27 15:01:45;;;;;;;;;;;5.00;84.50;;;;;;5045831;28;89413;-40
2022/12/27 15:04:10;;;;;;;;;;;5.00;84.40;;;;;;5049092;28;87754;-40
2022/12/27 15:06:36;;;;;;;;;;;5.00;84.30;;;;;;5046118;28;87092;-40
2022/12/27 15:09:07;;;;;;;;;;;5.00;84.30;;;;;;5045745;28;88271;-40
2022/12/27 15:11:42;;;;;;;;;;;5.10;84.30;;;;;;5045165;28;87861;-40
2022/12/27 15:14:07;;;;;;;;;;;5.00;84.30;;;;;;5046091;28;88333;-40
2022/12/27 15:16:44;;;;;;;;;;;5.00;84.30;;;;;;5045480;27;88051;-41
2022/12/27 15:19:21;;;;;;;;;;;5.10;84.30;;;;;;5045912;28;87030;-40
2022/12/27 15:21:49;;;;;;;;;;;5.10;84.20;;;;;;5045752;28;87427;-40
2022/12/27 15:24:22;;;;;;;;;;;5.10;84.30;;;;;;5045324;28;88122;-40
2022/12/27 15:26:54;;;;;;;;;;;5.10;84.30;;;;;;5048436;28;87134;-40
2022/12/27 15:29:38;;;;;;;;;;;5.10;84.40;;;;;;5045499;28;87363;-40
2022/12/27 15:32:16;;;;;;;;;;;5.10;84.40;;;;;;5045194;28;87062;-40
2022/12/27 15:34:41;;;;;;;;;;;5.20;84.50;;;;;;5045470;28;87382;-40
2022/12/27 15:37:27;;;;;;;;;;;5.20;84.60;;;;;;5044356;28;88988;-40
2022/12/27 15:39:52;;;;;;;;;;;5.20;84.60;;;;;;5044974;28;87001;-41
2022/12/27 15:42:27;;;;;;;;;;;5.20;84.50;;;;;;5044907;28;87641;-40
2022/12/27 15:45:01;;;;;;;;;;;5.20;84.60;;;;;;5044781;28;88175;-40
2022/12/27 15:47:27;;;;;;;;;;;5.20;84.50;;;;;;5045237;28;87118;-40
2022/12/27 15:50:14;;;;;;;;;;;5.20;84.50;;;;;;5047934;28;87480;-40
2022/12/27 15:52:45;;;;;;;;;;;5.20;84.50;;;;;;5045236;28;86989;-40
2022/12/27 15:55:18;;;;;;;;;;;5.20;84.40;;;;;;5045432;28;88722;-40
2022/12/27 15:57:52;;;;;;;;;;;5.20;84.40;;;;;;5044187;28;88116;-40
2022/12/27 16:00:25;;;;;;;;;;;5.20;84.30;;;;;;5045236;28;87028;-40
2022/12/27 16:02:55;;;;;;;;;;;5.20;84.20;;;;;;5044331;28;88681;-40
2022/12/27 16:05:24;;;;;;;;;;;5.20;84.10;;;;;;5044577;28;87120;-41
2022/12/27 16:07:55;;;;;;;;;;;5.20;84.00;;;;;;5044466;28;87156;-41
2022/12/27 16:10:30;;;;;;;;;;;5.30;84.00;;;;;;5045008;28;87328;-40
2022/12/27 16:12:59;;;;;;;;;;;5.30;84.00;;;;;;5047174;28;89236;-40
2022/12/27 16:15:33;;;;;;;;;;;5.30;84.00;;;;;;5044767;28;87097;-40
2022/12/27 16:17:59;;;;;;;;;;;5.30;83.90;;;;;;5044258;28;89210;-41
2022/12/27 16:20:25;;;;;;;;;;;5.30;83.90;;;;;;5045143;28;86736;-40
2022/12/27 16:22:52;;;;;;;;;;;5.30;83.90;;;;;;5044773;28;86990;-40
2022/12/27 16:25:20;;;;;;;;;;;5.30;83.90;;;;;;5044121;28;88306;-40
2022/12/27 16:27:51;;;;;;;;;;;5.40;83.90;;;;;;5043964;28;88245;-40
2022/12/27 16:30:33;;;;;;;;;;;5.40;83.80;;;;;;5044738;28;88324;-40